sensor_id;sensor_type;location;lat;lon;timestamp;temperature;humidity
20795;DHT22;28087;-33.874;151.240;2023-02-15T07:52:09;24.00;99.90
20795;DHT22;28087;-33.874;151.240;2023-02-15T07:54:44;24.10;99.90
20795;DHT22;28087;-33.874;151.240;2023-02-15T07:57:20;24.10;99.90
20795;DHT22;28087;-33.874;151.240;2023-02-15T07:59:55;24.00;99.90
20795;DHT22;28087;-33.874;151.240;2023-02-15T08:02:42;24.00;99.90
20795;DHT22;28087;-33.874;151.240;2023-02-15T08:05:19;24.00;99.90
20795;DHT22;28087;-33.874;151.240;2023-02-15T08:07:55;24.00;99.90
20795;DHT22;28087;-33.874;151.240;2023-02-15T08:10:30;23.90;99.90
20795;DHT22;28087;-33.874;151.240;2023-02-15T08:13:22;24.00;99.90
20795;DHT22;28087;-33.874;151.240;2023-02-15T08:15:58;24.00;99.90
20795;DHT22;28087;-33.874;151.240;2023-02-15T08:18:34;24.00;99.90
20795;DHT22;28087;-33.874;151.240;2023-02-15T08:21:12;23.90;99.90
20795;DHT22;28087;-33.874;151.240;2023-02-15T08:23:48;24.10;99.90
20795;DHT22;28087;-33.874;151.240;2023-02-15T08:26:23;23.90;99.90
20795;DHT22;28087;-33.874;151.240;2023-02-15T08:28:59;23.90;99.90
20795;DHT22;28087;-33.874;151.240;2023-02-15T08:31:36;23.90;99.90
20795;DHT22;28087;-33.874;151.240;2023-02-15T08:34:16;23.90;99.90
20795;DHT22;28087;-33.874;151.240;2023-02-15T08:36:53;24.00;99.90
20795;DHT22;28087;-33.874;151.240;2023-02-15T08:39:32;24.00;99.90
20795;DHT22;28087;-33.874;151.240;2023-02-15T08:42:13;23.90;99.90
20795;DHT22;28087;-33.874;151.240;2023-02-15T08:44:53;24.00;99.90
20795;DHT22;28087;-33.874;151.240;2023-02-15T08:47:29;23.90;99.90
20795;DHT22;28087;-33.874;151.240;2023-02-15T09:03:07;23.80;99.90
20795;DHT22;28087;-33.874;151.240;2023-02-15T09:05:44;23.90;99.90
20795;DHT22;28087;-33.874;151.240;2023-02-15T09:08:25;23.80;99.90
20795;DHT22;28087;-33.874;151.240;2023-02-15T09:11:08;23.90;99.90
20795;DHT22;28087;-33.874;151.240;2023-02-15T09:13:43;23.80;99.90
20795;DHT22;28087;-33.874;151.240;2023-02-15T09:18:59;23.70;99.90
20795;DHT22;28087;-33.874;151.240;2023-02-15T09:21:39;23.80;99.90
20795;DHT22;28087;-33.874;151.240;2023-02-15T09:24:17;23.80;99.90
20795;DHT22;28087;-33.874;151.240;2023-02-15T09:26:53;23.80;99.90
20795;DHT22;28087;-33.874;151.240;2023-02-15T09:29:28;23.70;99.90
20795;DHT22;28087;-33.874;151.240;2023-02-15T09:32:04;23.70;99.90
20795;DHT22;28087;-33.874;151.240;2023-02-15T09:34:40;23.60;99.90
20795;DHT22;28087;-33.874;151.240;2023-02-15T09:37:16;23.60;99.90
20795;DHT22;28087;-33.874;151.240;2023-02-15T09:39:53;23.60;99.90
20795;DHT22;28087;-33.874;151.240;2023-02-15T09:42:50;23.70;99.90
20795;DHT22;28087;-33.874;151.240;2023-02-15T09:45:40;23.60;99.90
20795;DHT22;28087;-33.874;151.240;2023-02-15T09:48:47;23.60;99.90
20795;DHT22;28087;-33.874;151.240;2023-02-15T09:51:38;23.60;99.90
20795;DHT22;28087;-33.874;151.240;2023-02-15T09:54:30;23.70;99.90
20795;DHT22;28087;-33.874;151.240;2023-02-15T09:57:13;23.60;99.90
20795;DHT22;28087;-33.874;151.240;2023-02-15T10:00:03;23.60;99.90
20795;DHT22;28087;-33.874;151.240;2023-02-15T10:18:01;23.60;99.90
20795;DHT22;28087;-33.874;151.240;2023-02-15T10:20:43;23.50;99.90
20795;DHT22;28087;-33.874;151.240;2023-02-15T10:23:46;23.50;99.90
20795;DHT22;28087;-33.874;151.240;2023-02-15T10:29:12;23.50;99.90
20795;DHT22;28087;-33.874;151.240;2023-02-15T10:34:39;23.30;99.90
20795;DHT22;28087;-33.874;151.240;2023-02-15T10:37:37;23.50;99.90
20795;DHT22;28087;-33.874;151.240;2023-02-15T10:40:25;23.40;99.90
20795;DHT22;28087;-33.874;151.240;2023-02-15T10:43:16;23.50;99.90
20795;DHT22;28087;-33.874;151.240;2023-02-15T10:46:05;23.50;99.90
20795;DHT22;28087;-33.874;151.240;2023-02-15T10:57:04;23.50;99.90
20795;DHT22;28087;-33.874;151.240;2023-02-15T11:00:02;23.50;99.90
20795;DHT22;28087;-33.874;151.240;2023-02-15T20:35:25;22.70;99.90
20795;DHT22;28087;-33.874;151.240;2023-02-15T20:38:03;23.00;99.90
20795;DHT22;28087;-33.874;151.240;2023-02-15T20:40:38;23.10;99.90
20795;DHT22;28087;-33.874;151.240;2023-02-15T20:43:35;23.10;99.90
20795;DHT22;28087;-33.874;151.240;2023-02-15T20:46:10;23.20;99.90
20795;DHT22;28087;-33.874;151.240;2023-02-15T20:48:49;23.20;99.90
20795;DHT22;28087;-33.874;151.240;2023-02-15T20:51:27;23.30;99.90
20795;DHT22;28087;-33.874;151.240;2023-02-15T20:54:10;23.40;99.90
20795;DHT22;28087;-33.874;151.240;2023-02-15T20:56:47;23.50;99.90
20795;DHT22;28087;-33.874;151.240;2023-02-15T20:59:26;23.50;99.90
20795;DHT22;28087;-33.874;151.240;2023-02-15T21:02:16;23.50;99.90
20795;DHT22;28087;-33.874;151.240;2023-02-15T21:04:56;23.50;99.90
20795;DHT22;28087;-33.874;151.240;2023-02-15T21:07:43;23.60;99.90
20795;DHT22;28087;-33.874;151.240;2023-02-15T21:10:21;23.60;99.90
20795;DHT22;28087;-33.874;151.240;2023-02-15T21:12:57;23.60;99.90
20795;DHT22;28087;-33.874;151.240;2023-02-15T21:15:34;23.60;99.90
20795;DHT22;28087;-33.874;151.240;2023-02-15T21:50:28;24.30;99.90
